Time;durP1;ratioP1;P1;durP2;ratioP2;P2;SDS_P1;SDS_P2;PMS_P1;PMS_P2;Temp;Humidity;BMP_temperature;BMP_pressure;BME280_temperature;BME280_humidity;BME280_pressure;Samples;Min_cycle;Max_cycle;Signal;HPM_P1;HPM_P2
2021/05/01 00:00:41;;;;;;;25.50;23.20;;;8.90;99.90;;;;;;5022058;28;20637;-69
2021/05/01 00:03:07;;;;;;;22.92;20.77;;;8.80;99.90;;;;;;5022114;28;20108;-69
2021/05/01 00:05:32;;;;;;;24.77;22.40;;;8.90;99.90;;;;;;5022969;28;20488;-69
2021/05/01 00:07:58;;;;;;;26.10;23.60;;;8.80;99.90;;;;;;5021923;28;20477;-69
2021/05/01 00:10:24;;;;;;;24.83;22.67;;;8.90;99.90;;;;;;5022849;28;20503;-69
2021/05/01 00:12:49;;;;;;;24.08;21.88;;;8.90;99.90;;;;;;5024032;28;20056;-69
2021/05/01 00:15:16;;;;;;;22.63;20.52;;;8.80;99.90;;;;;;5022162;28;20127;-69
2021/05/01 00:17:45;;;;;;;27.55;24.85;;;8.80;99.90;;;;;;5023547;28;20100;-69
2021/05/01 00:20:17;;;;;;;27.13;24.50;;;8.80;99.90;;;;;;5019842;28;20045;-69
2021/05/01 00:22:43;;;;;;;28.60;25.88;;;8.80;99.90;;;;;;5024034;28;20127;-69
2021/05/01 00:25:09;;;;;;;29.88;26.70;;;8.80;99.90;;;;;;5025719;28;20037;-69
2021/05/01 00:27:35;;;;;;;28.02;25.45;;;8.60;99.90;;;;;;5024850;28;20503;-69
2021/05/01 00:30:01;;;;;;;26.15;23.65;;;8.60;99.90;;;;;;5021557;28;20247;-69
2021/05/01 00:32:26;;;;;;;27.55;25.00;;;8.50;99.90;;;;;;5024587;28;20687;-69
2021/05/01 00:35:03;;;;;;;25.75;23.45;;;8.50;99.90;;;;;;5019386;28;20041;-69
2021/05/01 00:37:29;;;;;;;26.30;23.90;;;8.50;99.90;;;;;;5022809;28;20369;-69
2021/05/01 00:39:54;;;;;;;26.88;24.38;;;8.50;99.90;;;;;;5015849;28;20049;-69
2021/05/01 00:42:20;;;;;;;26.23;23.67;;;8.50;99.90;;;;;;5024053;28;20114;-69
2021/05/01 00:44:46;;;;;;;25.17;23.05;;;8.10;99.90;;;;;;5022119;28;20466;-69
2021/05/01 00:47:12;;;;;;;24.60;22.48;;;8.50;99.90;;;;;;5023912;28;20075;-69
2021/05/01 00:49:38;;;;;;;25.10;22.80;;;8.50;99.90;;;;;;5018975;28;20102;-69
2021/05/01 00:52:04;;;;;;;25.15;22.75;;;8.50;99.90;;;;;;5024714;28;20042;-69
2021/05/01 00:54:30;;;;;;;27.70;24.92;;;8.50;99.90;;;;;;5021711;28;20660;-69
2021/05/01 00:56:57;;;;;;;26.98;24.58;;;8.50;99.90;;;;;;5023601;28;20052;-69
2021/05/01 00:59:22;;;;;;;26.35;23.92;;;8.40;99.90;;;;;;5019416;28;20060;-69
2021/05/01 01:01:50;;;;;;;25.90;23.60;;;8.50;99.90;;;;;;5022457;28;20057;-69
2021/05/01 01:04:16;;;;;;;26.60;24.17;;;8.50;99.90;;;;;;5018290;28;20034;-69
2021/05/01 01:06:42;;;;;;;27.33;24.85;;;8.50;99.90;;;;;;5022179;28;20127;-69
2021/05/01 01:09:08;;;;;;;30.08;27.00;;;8.50;99.90;;;;;;5019952;28;20640;-69
2021/05/01 01:11:35;;;;;;;27.80;24.98;;;8.50;99.90;;;;;;5024291;28;20041;-69
2021/05/01 01:14:01;;;;;;;28.25;25.65;;;8.50;99.90;;;;;;5023212;28;20053;-69
2021/05/01 01:16:29;;;;;;;28.20;25.50;;;8.40;99.90;;;;;;5023913;28;20046;-69
2021/05/01 01:18:56;;;;;;;28.05;25.38;;;8.40;99.90;;;;;;5023073;28;20045;-69
2021/05/01 01:21:22;;;;;;;27.90;25.40;;;8.40;99.90;;;;;;5028831;28;20116;-69
2021/05/01 01:23:49;;;;;;;34.28;30.08;;;8.40;99.90;;;;;;5024514;28;20168;-69
2021/05/01 01:26:15;;;;;;;32.25;29.08;;;8.40;99.90;;;;;;5025764;28;20487;-69
2021/05/01 01:28:40;;;;;;;35.95;28.80;;;8.40;99.90;;;;;;5023150;28;20048;-69
2021/05/01 01:31:06;;;;;;;31.95;28.85;;;8.40;99.90;;;;;;5026909;28;20048;-69
2021/05/01 01:33:32;;;;;;;31.98;28.90;;;8.30;99.90;;;;;;5027076;28;20054;-69
2021/05/01 01:35:58;;;;;;;29.83;27.05;;;8.30;99.90;;;;;;5028736;28;20042;-69
2021/05/01 01:38:24;;;;;;;28.88;26.20;;;8.20;99.90;;;;;;5023116;28;20042;-69
2021/05/01 01:40:49;;;;;;;29.83;26.90;;;8.20;99.90;;;;;;5026720;28;20043;-69
2021/05/01 01:43:15;;;;;;;30.30;27.50;;;8.20;99.90;;;;;;5026109;28;20052;-69
2021/05/01 01:45:41;;;;;;;28.63;25.92;;;8.20;99.90;;;;;;5028000;28;20132;-69
2021/05/01 01:48:07;;;;;;;29.65;26.88;;;8.20;99.90;;;;;;5022646;28;20069;-69
2021/05/01 01:50:33;;;;;;;30.38;27.48;;;8.20;99.90;;;;;;5024034;28;20122;-69
2021/05/01 01:52:59;;;;;;;32.40;29.30;;;8.10;99.90;;;;;;5024678;28;20037;-69
2021/05/01 01:55:25;;;;;;;30.77;27.88;;;8.10;99.90;;;;;;5027220;28;20526;-69
2021/05/01 01:57:52;;;;;;;30.48;26.48;;;8.10;99.90;;;;;;5024696;28;20108;-69
2021/05/01 02:00:24;;;;;;;136.63;32.78;;;8.00;99.90;;;;;;5022135;28;20076;-69
2021/05/01 02:02:51;;;;;;;179.93;33.42;;;8.00;99.90;;;;;;5023048;28;20076;-69
2021/05/01 02:05:17;;;;;;;98.35;31.45;;;8.00;99.90;;;;;;5025310;28;20037;-69
2021/05/01 02:07:43;;;;;;;110.45;33.83;;;8.00;99.90;;;;;;5025875;28;20100;-69
2021/05/01 02:10:10;;;;;;;224.38;34.72;;;7.90;99.90;;;;;;5022301;28;20030;-69
2021/05/01 02:12:38;;;;;;;307.88;35.05;;;7.90;99.90;;;;;;5025399;28;20037;-69
2021/05/01 02:15:13;;;;;;;450.80;38.22;;;7.80;99.90;;;;;;5025599;28;20060;-69
2021/05/01 02:17:42;;;;;;;605.92;53.88;;;7.90;99.90;;;;;;5023696;28;20049;-69
2021/05/01 02:20:10;;;;;;;493.00;46.20;;;7.80;99.90;;;;;;5020402;28;20053;-69
2021/05/01 02:22:36;;;;;;;347.63;37.92;;;7.80;99.90;;;;;;5023966;28;20038;-69
2021/05/01 02:25:03;;;;;;;516.67;54.00;;;7.80;99.90;;;;;;5025133;28;20050;-69
2021/05/01 02:27:28;;;;;;;245.35;35.10;;;7.70;99.90;;;;;;5023739;28;20525;-69
2021/05/01 02:29:54;;;;;;;340.10;45.10;;;7.60;99.90;;;;;;5015658;28;20132;-69
2021/05/01 02:32:20;;;;;;;448.58;44.63;;;7.60;99.90;;;;;;5024527;28;20056;-69
2021/05/01 02:34:46;;;;;;;389.55;35.17;;;7.60;99.90;;;;;;5026832;28;20392;-69
2021/05/01 02:37:12;;;;;;;380.85;39.88;;;7.50;99.90;;;;;;5026789;28;20045;-69
2021/05/01 02:39:38;;;;;;;361.98;39.17;;;7.50;99.90;;;;;;5020348;28;20042;-69
2021/05/01 02:42:04;;;;;;;375.08;38.33;;;7.40;99.90;;;;;;5025193;28;20554;-69
2021/05/01 02:44:30;;;;;;;376.83;35.17;;;7.40;99.90;;;;;;5024960;28;20066;-69
2021/05/01 02:46:56;;;;;;;285.40;34.50;;;7.40;99.90;;;;;;5026737;28;20029;-69
2021/05/01 02:49:21;;;;;;;176.13;31.02;;;7.30;99.90;;;;;;5022980;28;20045;-69
2021/05/01 02:51:47;;;;;;;403.77;41.85;;;7.30;99.90;;;;;;5025006;28;20061;-69
2021/05/01 02:54:14;;;;;;;308.67;35.45;;;7.30;99.90;;;;;;5024540;28;20042;-69
2021/05/01 02:56:40;;;;;;;332.42;35.72;;;7.20;99.90;;;;;;5024991;28;20044;-69
2021/05/01 02:59:06;;;;;;;338.73;36.67;;;7.30;99.90;;;;;;5022047;28;20049;-69
2021/05/01 03:01:32;;;;;;;250.70;32.67;;;7.20;99.90;;;;;;5022087;28;20376;-69
2021/05/01 03:03:58;;;;;;;267.70;33.28;;;7.20;99.90;;;;;;5025953;28;20043;-69
2021/05/01 03:06:23;;;;;;;176.35;31.17;;;7.20;99.90;;;;;;5024718;28;20410;-69
2021/05/01 03:08:49;;;;;;;219.45;30.90;;;7.20;99.90;;;;;;5018585;28;20612;-69
2021/05/01 03:11:15;;;;;;;363.02;34.47;;;7.30;99.90;;;;;;5021406;28;20739;-69
2021/05/01 03:13:41;;;;;;;277.25;40.28;;;7.30;99.90;;;;;;5025026;28;20108;-69
2021/05/01 03:16:06;;;;;;;316.20;39.55;;;7.30;99.90;;;;;;5025790;28;20129;-69
2021/05/01 03:18:32;;;;;;;252.70;33.15;;;7.30;99.90;;;;;;5021634;28;20049;-69
2021/05/01 03:20:58;;;;;;;229.38;34.97;;;7.30;99.90;;;;;;5024545;28;20041;-69
2021/05/01 03:23:26;;;;;;;157.43;28.52;;;7.30;99.90;;;;;;5025008;28;20506;-69
2021/05/01 03:25:52;;;;;;;213.40;32.08;;;7.30;99.90;;;;;;5025473;28;20148;-69
2021/05/01 03:28:18;;;;;;;120.90;27.38;;;7.20;99.90;;;;;;5022005;28;20116;-69
2021/05/01 03:30:43;;;;;;;87.53;28.92;;;7.20;99.90;;;;;;5024939;28;20045;-69
2021/05/01 03:33:09;;;;;;;128.32;33.08;;;7.20;99.90;;;;;;5024502;28;20041;-69
2021/05/01 03:35:35;;;;;;;125.70;34.30;;;7.40;99.90;;;;;;5024365;28;20132;-69
2021/05/01 03:38:00;;;;;;;59.13;34.10;;;7.50;99.90;;;;;;5022961;28;20046;-69
2021/05/01 03:40:26;;;;;;;32.33;26.75;;;7.40;99.90;;;;;;5018138;28;20048;-69
2021/05/01 03:42:52;;;;;;;42.25;32.45;;;7.30;99.90;;;;;;5025700;28;20432;-69
2021/05/01 03:45:17;;;;;;;33.92;30.33;;;7.40;99.90;;;;;;5025342;28;20044;-69
2021/05/01 03:47:45;;;;;;;36.22;31.48;;;7.30;99.90;;;;;;5023537;28;20069;-69
2021/05/01 03:50:11;;;;;;;39.90;32.33;;;7.30;99.90;;;;;;5022993;28;20045;-69
2021/05/01 03:52:36;;;;;;;32.55;29.23;;;7.30;99.90;;;;;;5024560;28;20125;-69
2021/05/01 03:55:04;;;;;;;34.38;30.83;;;7.30;99.90;;;;;;5021598;28;20447;-69
2021/05/01 03:57:30;;;;;;;35.35;31.17;;;7.30;99.90;;;;;;5021606;28;20443;-69
2021/05/01 03:59:55;;;;;;;36.67;32.90;;;7.30;99.90;;;;;;5019964;28;20045;-69
2021/05/01 04:02:21;;;;;;;35.28;31.50;;;7.40;99.90;;;;;;5024821;28;20590;-69
2021/05/01 04:04:47;;;;;;;36.75;32.92;;;7.30;99.90;;;;;;5023260;28;20099;-69
2021/05/01 04:07:13;;;;;;;38.75;34.50;;;7.40;99.90;;;;;;5024893;28;20394;-69
2021/05/01 04:09:39;;;;;;;42.72;33.05;;;7.40;99.90;;;;;;5020852;28;20041;-69
2021/05/01 04:12:05;;;;;;;34.50;30.90;;;7.40;99.90;;;;;;5024365;28;20037;-69
2021/05/01 04:14:31;;;;;;;40.50;35.58;;;7.40;99.90;;;;;;5021032;28;20029;-69
2021/05/01 04:16:58;;;;;;;44.28;37.55;;;7.40;99.90;;;;;;5025273;28;20132;-69
2021/05/01 04:19:24;;;;;;;44.15;37.95;;;7.50;99.90;;;;;;5021873;28;20040;-69
2021/05/01 04:21:50;;;;;;;44.72;37.28;;;7.60;99.90;;;;;;5022889;28;20042;-69
2021/05/01 04:24:16;;;;;;;50.90;39.60;;;7.50;99.90;;;;;;5020855;28;20041;-69
2021/05/01 04:26:42;;;;;;;54.30;41.67;;;7.60;99.90;;;;;;5023903;28;20053;-69
2021/05/01 04:29:10;;;;;;;57.30;39.88;;;7.60;99.90;;;;;;5018925;28;20084;-69
2021/05/01 04:31:36;;;;;;;42.53;35.03;;;7.60;99.90;;;;;;5022905;28;20065;-69
2021/05/01 04:34:02;;;;;;;47.50;36.80;;;7.60;99.90;;;;;;5024082;28;20076;-69
2021/05/01 04:36:28;;;;;;;41.60;34.25;;;7.70;99.90;;;;;;5024516;28;20116;-69
2021/05/01 04:38:53;;;;;;;34.80;30.95;;;7.70;99.90;;;;;;5019099;28;20594;-69
2021/05/01 04:41:19;;;;;;;35.92;31.45;;;7.70;99.90;;;;;;5023696;28;20140;-69
2021/05/01 04:43:46;;;;;;;35.22;31.48;;;7.60;99.90;;;;;;5023593;28;20495;-69
2021/05/01 04:46:17;;;;;;;38.47;31.88;;;7.60;99.90;;;;;;5023857;28;20081;-69
2021/05/01 04:48:43;;;;;;;36.85;30.73;;;7.60;99.90;;;;;;5020509;28;20049;-69
2021/05/01 04:51:09;;;;;;;33.67;30.05;;;7.60;99.90;;;;;;5022446;28;20395;-69
2021/05/01 04:53:35;;;;;;;33.72;29.10;;;7.60;99.90;;;;;;5025628;28;20082;-69
2021/05/01 04:56:00;;;;;;;31.63;28.23;;;7.60;99.90;;;;;;5024306;28;20045;-69
2021/05/01 04:58:26;;;;;;;31.13;27.95;;;7.60;99.90;;;;;;5024828;28;20434;-69
2021/05/01 05:00:52;;;;;;;28.75;25.90;;;7.70;99.90;;;;;;5022073;28;20160;-69
2021/05/01 05:03:18;;;;;;;29.23;26.38;;;7.70;99.90;;;;;;5029308;28;20069;-69
2021/05/01 05:05:44;;;;;;;27.98;25.23;;;7.80;99.90;;;;;;5027381;28;20388;-69
2021/05/01 05:08:10;;;;;;;28.17;25.38;;;7.80;99.90;;;;;;5025285;28;20044;-69
2021/05/01 05:10:36;;;;;;;27.08;24.33;;;7.80;99.90;;;;;;5022360;28;20649;-69
2021/05/01 05:13:02;;;;;;;26.45;23.85;;;7.90;99.90;;;;;;5026364;28;20097;-69
2021/05/01 05:15:28;;;;;;;23.83;21.58;;;7.90;99.90;;;;;;5027784;28;20652;-69
2021/05/01 05:17:54;;;;;;;26.30;23.20;;;8.00;99.90;;;;;;5026014;28;20042;-69
2021/05/01 05:20:20;;;;;;;24.13;21.90;;;8.10;99.90;;;;;;5021496;28;20096;-69
2021/05/01 05:22:46;;;;;;;22.50;20.30;;;8.10;99.90;;;;;;5026428;28;20458;-69
2021/05/01 05:25:12;;;;;;;19.45;17.65;;;8.20;99.90;;;;;;5023310;28;20125;-69
2021/05/01 05:27:38;;;;;;;18.95;17.13;;;8.20;99.90;;;;;;5026112;28;20049;-69
2021/05/01 05:30:05;;;;;;;18.52;16.83;;;8.20;99.90;;;;;;5023497;28;20038;-69
2021/05/01 05:32:31;;;;;;;18.02;16.25;;;8.30;99.90;;;;;;5023790;28;20049;-69
2021/05/01 05:34:57;;;;;;;19.05;17.20;;;8.30;99.90;;;;;;5026014;28;20034;-69
2021/05/01 05:37:22;;;;;;;18.45;16.85;;;8.40;99.90;;;;;;5023883;28;20188;-69
2021/05/01 05:39:50;;;;;;;20.40;15.73;;;8.60;99.90;;;;;;5021126;28;20503;-69
2021/05/01 05:42:16;;;;;;;16.10;14.60;;;8.80;99.90;;;;;;5022741;28;20475;-69
2021/05/01 05:44:45;;;;;;;16.05;14.55;;;8.80;99.90;;;;;;5023967;28;20045;-69
2021/05/01 05:47:12;;;;;;;17.65;14.77;;;8.90;99.90;;;;;;5022428;28;20040;-69
2021/05/01 05:49:38;;;;;;;16.30;14.80;;;8.90;99.90;;;;;;5023478;28;20041;-69
2021/05/01 05:52:04;;;;;;;15.13;13.73;;;8.80;99.90;;;;;;5020515;28;20045;-69
2021/05/01 05:54:30;;;;;;;14.70;13.40;;;8.80;99.90;;;;;;5025871;28;20045;-69
2021/05/01 05:56:57;;;;;;;15.75;14.45;;;8.90;99.90;;;;;;5024161;28;20048;-69
2021/05/01 05:59:23;;;;;;;14.50;13.30;;;8.90;99.90;;;;;;5022321;28;20057;-69
2021/05/01 06:01:51;;;;;;;14.32;13.02;;;8.90;99.90;;;;;;5023479;28;20365;-69
2021/05/01 06:04:28;;;;;;;14.82;13.43;;;8.90;99.90;;;;;;5024318;28;20188;-69
2021/05/01 06:07:26;;;;;;;13.20;12.00;;;8.90;99.90;;;;;;5023514;28;20459;-69
2021/05/01 06:09:55;;;;;;;15.23;12.65;;;8.80;99.90;;;;;;5016754;28;20065;-69
2021/05/01 06:12:22;;;;;;;13.43;12.13;;;8.80;99.90;;;;;;5024457;28;20045;-69
2021/05/01 06:14:49;;;;;;;14.52;13.05;;;8.90;99.90;;;;;;5022867;28;20502;-69
2021/05/01 06:17:19;;;;;;;13.35;12.05;;;8.80;99.90;;;;;;5026230;28;20048;-69
2021/05/01 06:19:47;;;;;;;13.25;12.05;;;8.70;99.90;;;;;;5021747;28;20049;-69
2021/05/01 06:22:15;;;;;;;12.20;10.90;;;8.80;99.90;;;;;;5024165;28;20438;-69
2021/05/01 06:24:42;;;;;;;13.98;12.68;;;8.80;99.90;;;;;;5022594;28;20115;-69
2021/05/01 06:27:08;;;;;;;14.10;12.80;;;8.90;99.90;;;;;;5026106;28;20432;-69
2021/05/01 06:29:38;;;;;;;12.85;11.65;;;8.90;99.90;;;;;;5023284;28;20060;-69
2021/05/01 06:32:11;;;;;;;12.98;11.70;;;9.00;99.90;;;;;;5024280;28;20064;-69
2021/05/01 06:34:37;;;;;;;12.77;11.50;;;9.00;99.90;;;;;;5022897;28;20038;-69
2021/05/01 06:37:04;;;;;;;13.05;11.73;;;9.10;99.90;;;;;;5025732;28;20940;-69
2021/05/01 06:39:34;;;;;;;13.63;12.23;;;9.20;99.90;;;;;;5021328;28;20052;-69
2021/05/01 06:42:03;;;;;;;13.75;12.55;;;9.30;99.90;;;;;;5023452;28;20042;-69
2021/05/01 06:44:42;;;;;;;14.63;13.13;;;9.40;99.90;;;;;;5023929;28;20144;-69
2021/05/01 06:47:16;;;;;;;14.35;13.00;;;9.50;99.90;;;;;;5022920;28;20497;-69
2021/05/01 06:49:44;;;;;;;17.33;13.25;;;9.60;99.90;;;;;;5016732;28;20615;-69
2021/05/01 06:52:13;;;;;;;17.25;14.00;;;9.70;99.90;;;;;;5025250;28;20048;-69
2021/05/01 06:54:38;;;;;;;17.52;13.20;;;10.00;99.90;;;;;;5024666;28;20048;-69
2021/05/01 06:57:04;;;;;;;17.75;12.80;;;10.20;99.90;;;;;;5019731;28;20030;-69
2021/05/01 06:59:31;;;;;;;18.58;12.77;;;10.30;99.90;;;;;;5021594;28;20115;-69
2021/05/01 07:01:57;;;;;;;21.35;13.85;;;10.30;99.90;;;;;;5024139;28;20041;-69
2021/05/01 07:04:23;;;;;;;19.58;14.73;;;10.20;99.90;;;;;;5026771;28;20789;-69
2021/05/01 07:06:49;;;;;;;20.63;14.98;;;10.10;99.90;;;;;;5024118;28;20464;-69
2021/05/01 07:09:15;;;;;;;17.58;13.77;;;10.10;99.90;;;;;;5017122;28;20235;-69
2021/05/01 07:11:41;;;;;;;15.70;11.80;;;10.10;99.90;;;;;;5022345;28;20232;-69
2021/05/01 07:14:10;;;;;;;19.80;12.80;;;10.30;99.90;;;;;;5025432;28;20046;-69
2021/05/01 07:16:36;;;;;;;22.00;12.15;;;10.50;99.90;;;;;;5016073;28;20503;-69
2021/05/01 07:19:02;;;;;;;21.77;13.50;;;10.50;99.90;;;;;;5018358;28;20073;-69
2021/05/01 07:21:28;;;;;;;17.20;12.93;;;10.40;99.90;;;;;;5020566;28;20045;-69
2021/05/01 07:23:54;;;;;;;16.02;12.50;;;10.30;99.90;;;;;;5022200;28;20045;-69
2021/05/01 07:26:22;;;;;;;16.55;11.32;;;10.30;99.90;;;;;;5024444;28;20091;-69
2021/05/01 07:28:53;;;;;;;15.65;11.45;;;10.20;99.90;;;;;;5020314;28;20108;-69
2021/05/01 07:31:24;;;;;;;16.52;10.88;;;10.20;99.90;;;;;;5022422;28;20163;-69
2021/05/01 07:33:56;;;;;;;15.98;10.95;;;10.10;99.90;;;;;;5020897;28;20235;-69
2021/05/01 07:36:42;;;;;;;18.30;10.95;;;10.10;99.90;;;;;;5024352;28;20182;-69
2021/05/01 07:39:12;;;;;;;19.23;10.97;;;10.10;99.90;;;;;;5023135;28;20042;-69
2021/05/01 07:41:43;;;;;;;16.58;11.05;;;10.10;99.90;;;;;;5021065;28;20037;-69
2021/05/01 07:44:12;;;;;;;20.38;11.05;;;10.30;99.90;;;;;;5021702;28;20049;-69
2021/05/01 07:46:40;;;;;;;16.05;10.57;;;10.30;99.90;;;;;;5025073;28;20037;-69
2021/05/01 07:49:07;;;;;;;18.80;10.30;;;10.40;99.90;;;;;;5020341;28;20075;-69
2021/05/01 07:51:35;;;;;;;17.08;11.15;;;10.40;99.90;;;;;;5023332;28;20566;-69
2021/05/01 07:54:04;;;;;;;15.32;10.52;;;10.60;99.90;;;;;;5023310;28;20088;-69
2021/05/01 07:56:30;;;;;;;14.30;10.63;;;10.70;99.90;;;;;;5022490;28;20061;-69
2021/05/01 07:58:56;;;;;;;15.77;9.45;;;10.90;99.90;;;;;;5022593;28;20108;-69
2021/05/01 08:01:29;;;;;;;13.27;9.80;;;11.10;99.90;;;;;;5023610;28;20037;-69
2021/05/01 08:03:55;;;;;;;12.43;9.05;;;11.40;99.90;;;;;;5034415;28;20084;-69
2021/05/01 08:06:22;;;;;;;13.55;8.95;;;11.50;99.80;;;;;;5024710;28;20083;-69
2021/05/01 08:08:48;;;;;;;11.40;8.50;;;11.70;98.70;;;;;;5022662;28;20153;-69
2021/05/01 08:11:14;;;;;;;15.20;8.68;;;11.90;97.50;;;;;;5023679;28;20065;-69
2021/05/01 08:13:40;;;;;;;13.88;8.68;;;11.90;97.60;;;;;;5022830;28;20095;-69
2021/05/01 08:16:05;;;;;;;12.70;8.27;;;12.20;98.40;;;;;;5023239;28;20073;-69
2021/05/01 08:18:32;;;;;;;10.52;7.40;;;12.50;97.90;;;;;;5020169;28;20492;-69
2021/05/01 08:20:58;;;;;;;9.07;7.53;;;12.40;95.30;;;;;;5023467;28;20084;-69
2021/05/01 08:23:24;;;;;;;10.57;7.20;;;12.30;95.30;;;;;;5021028;28;20491;-69
2021/05/01 08:25:51;;;;;;;14.75;9.55;;;12.10;94.00;;;;;;5021825;28;20046;-69
2021/05/01 08:28:17;;;;;;;12.68;8.23;;;12.00;95.70;;;;;;5023071;28;20095;-69
2021/05/01 08:30:44;;;;;;;10.00;8.57;;;12.00;95.70;;;;;;5022020;28;20442;-69
2021/05/01 08:33:10;;;;;;;9.00;7.60;;;12.00;96.00;;;;;;5023650;28;20053;-69
2021/05/01 08:35:38;;;;;;;9.57;6.70;;;12.10;96.80;;;;;;5023972;28;20037;-69
2021/05/01 08:38:05;;;;;;;9.60;7.88;;;12.10;96.10;;;;;;5025303;28;20040;-69
2021/05/01 08:40:32;;;;;;;12.73;7.15;;;12.20;96.50;;;;;;5019799;28;20056;-69
2021/05/01 08:42:58;;;;;;;8.88;7.47;;;12.10;95.30;;;;;;5020190;28;20046;-69
2021/05/01 08:45:27;;;;;;;9.88;7.60;;;12.10;95.80;;;;;;5020631;28;20041;-69
2021/05/01 08:47:54;;;;;;;10.88;6.88;;;12.10;95.30;;;;;;5019946;28;20585;-69
2021/05/01 08:50:26;;;;;;;10.80;6.90;;;12.10;93.60;;;;;;5016007;28;20648;-69
2021/05/01 08:52:56;;;;;;;9.25;7.53;;;12.10;93.30;;;;;;5019120;28;20041;-69
2021/05/01 08:55:26;;;;;;;10.07;7.35;;;12.40;94.40;;;;;;5018688;28;20072;-69
2021/05/01 08:57:53;;;;;;;11.07;6.20;;;12.70;95.60;;;;;;5021641;28;20396;-69
2021/05/01 09:00:19;;;;;;;9.75;7.20;;;13.20;95.30;;;;;;5019074;28;20045;-69
2021/05/01 09:02:47;;;;;;;10.85;7.55;;;13.70;93.90;;;;;;5022463;28;20050;-70
2021/05/01 09:05:13;;;;;;;10.85;6.45;;;13.90;93.40;;;;;;5022740;28;20042;-69
2021/05/01 09:07:43;;;;;;;7.05;6.15;;;14.00;92.90;;;;;;5024779;28;20048;-69
2021/05/01 09:10:10;;;;;;;8.48;6.30;;;13.90;91.90;;;;;;5021232;28;20080;-69
2021/05/01 09:12:41;;;;;;;7.10;5.88;;;13.90;91.70;;;;;;5021099;28;20049;-69
2021/05/01 09:15:12;;;;;;;7.93;5.47;;;13.70;90.50;;;;;;5024001;28;20492;-70
2021/05/01 09:17:39;;;;;;;7.57;5.88;;;13.70;89.30;;;;;;5021716;28;20041;-69
2021/05/01 09:20:08;;;;;;;7.35;6.00;;;14.00;91.40;;;;;;5020706;28;20435;-69
2021/05/01 09:22:56;;;;;;;7.82;5.97;;;14.20;86.90;;;;;;5022087;28;20037;-70
2021/05/01 09:25:24;;;;;;;6.68;5.70;;;14.20;88.60;;;;;;5022110;28;20050;-70
2021/05/01 09:28:02;;;;;;;6.97;6.05;;;14.20;87.30;;;;;;5019090;28;20091;-69
2021/05/01 09:30:30;;;;;;;9.25;5.35;;;14.10;88.00;;;;;;5018847;28;20527;-70
2021/05/01 09:33:19;;;;;;;7.00;5.47;;;13.80;87.40;;;;;;5023171;28;20052;-69
2021/05/01 09:35:55;;;;;;;6.95;5.28;;;13.50;83.70;;;;;;5018603;28;20068;-69
2021/05/01 09:38:21;;;;;;;;;;;13.30;85.70;;;;;;5022105;28;20037;-70
2021/05/01 09:40:48;;;;;;;6.57;5.30;;;13.40;90.10;;;;;;5022055;28;19925;-69
2021/05/01 09:43:14;;;;;;;8.07;5.47;;;13.30;82.80;;;;;;5025792;28;20124;-69
2021/05/01 09:45:40;;;;;;;8.45;5.63;;;13.10;85.30;;;;;;5024838;28;20422;-70
2021/05/01 09:48:14;;;;;;;7.57;5.82;;;13.10;86.50;;;;;;5026747;28;20069;-69
2021/05/01 09:50:41;;;;;;;7.78;5.65;;;12.90;89.30;;;;;;5021534;28;20084;-69
2021/05/01 09:53:14;;;;;;;8.90;5.75;;;12.70;87.50;;;;;;5025784;28;20042;-69
2021/05/01 09:55:53;;;;;;;9.00;5.88;;;12.70;88.80;;;;;;5026133;28;20046;-69
2021/05/01 09:58:30;;;;;;;9.57;6.07;;;12.60;90.00;;;;;;5025065;28;20049;-70
2021/05/01 10:01:13;;;;;;;9.73;6.07;;;12.50;88.20;;;;;;5027023;28;20099;-69
2021/05/01 10:03:40;;;;;;;6.13;5.53;;;12.40;88.50;;;;;;5024045;28;20559;-69
2021/05/01 10:06:07;;;;;;;8.55;6.03;;;12.40;90.00;;;;;;5024557;28;20060;-70
2021/05/01 10:08:34;;;;;;;6.30;4.97;;;12.40;88.70;;;;;;5023711;28;20052;-70
2021/05/01 10:11:13;;;;;;;5.60;4.68;;;12.40;85.80;;;;;;5026774;28;20045;-69
2021/05/01 10:13:53;;;;;;;7.72;5.18;;;12.40;83.60;;;;;;5025371;28;20390;-69
2021/05/01 10:16:20;;;;;;;6.10;5.07;;;12.50;85.80;;;;;;5023110;28;20100;-69
2021/05/01 10:19:08;;;;;;;6.90;4.70;;;12.50;88.30;;;;;;5022345;28;20045;-69
2021/05/01 10:21:35;;;;;;;6.47;4.75;;;12.40;84.00;;;;;;5024080;28;20046;-70
2021/05/01 10:24:01;;;;;;;6.35;4.22;;;12.40;85.50;;;;;;5027080;28;20054;-70
2021/05/01 10:26:41;;;;;;;5.63;4.28;;;12.40;85.00;;;;;;5024404;28;20796;-70
2021/05/01 10:29:08;;;;;;;8.45;4.80;;;12.40;79.50;;;;;;5021921;28;20056;-70
2021/05/01 10:31:52;;;;;;;5.53;4.38;;;12.50;81.10;;;;;;5024210;28;20054;-70
2021/05/01 10:34:23;;;;;;;6.88;4.30;;;12.80;79.70;;;;;;5024960;28;20041;-70
2021/05/01 10:36:51;;;;;;;5.07;4.57;;;12.80;82.10;;;;;;5023629;28;21243;-69
2021/05/01 10:39:17;;;;;;;4.55;3.90;;;12.80;81.60;;;;;;5018071;28;20037;-70
2021/05/01 10:42:00;;;;;;;6.03;4.55;;;12.80;83.30;;;;;;5022228;28;20110;-70
2021/05/01 10:44:26;;;;;;;9.98;4.88;;;12.90;79.90;;;;;;5021750;28;20041;-70
2021/05/01 10:47:08;;;;;;;6.90;5.18;;;13.20;84.50;;;;;;5011438;28;22135;-70
2021/05/01 10:49:35;;;;;;;7.10;4.90;;;13.70;86.70;;;;;;5011185;28;20045;-69
2021/05/01 10:52:13;;;;;;;6.90;4.65;;;14.10;83.30;;;;;;5011526;28;20447;-70
2021/05/01 10:55:03;;;;;;;5.65;3.78;;;14.40;79.40;;;;;;5023044;28;20128;-70
2021/05/01 10:57:30;;;;;;;4.70;4.03;;;14.70;81.30;;;;;;5026150;28;20052;-69
2021/05/01 11:00:04;;;;;;;5.25;4.03;;;15.00;80.00;;;;;;5022092;28;20578;-70
2021/05/01 11:02:41;;;;;;;3.95;3.55;;;15.30;76.90;;;;;;5023430;28;20045;-70
2021/05/01 11:05:14;;;;;;;4.63;3.72;;;15.40;68.80;;;;;;5023053;28;20045;-69
2021/05/01 11:07:51;;;;;;;5.30;4.05;;;15.20;67.70;;;;;;5021035;28;20407;-69
2021/05/01 11:10:17;;;;;;;4.35;3.95;;;14.90;70.00;;;;;;5020347;28;20033;-69
2021/05/01 11:12:55;;;;;;;5.78;4.30;;;14.70;71.10;;;;;;5021725;28;20072;-70
2021/05/01 11:15:25;;;;;;;6.15;4.30;;;14.90;70.30;;;;;;5022883;28;20099;-69
2021/05/01 11:18:03;;;;;;;6.00;5.22;;;15.50;70.70;;;;;;5023728;28;20029;-69
2021/05/01 11:20:30;;;;;;;6.10;5.47;;;15.50;68.30;;;;;;5019989;28;20042;-69
2021/05/01 11:22:56;;;;;;;7.95;5.95;;;15.60;73.40;;;;;;5042461;28;20077;-69
2021/05/01 11:25:23;;;;;;;19.65;11.43;;;15.40;75.20;;;;;;5023981;28;20099;-69
2021/05/01 11:27:53;;;;;;;16.05;13.40;;;15.50;77.50;;;;;;5024206;28;20037;-70
2021/05/01 11:30:21;;;;;;;12.20;9.85;;;15.40;73.30;;;;;;5018643;28;20038;-69
2021/05/01 11:32:48;;;;;;;12.25;10.90;;;15.50;73.50;;;;;;5025055;28;20061;-69
2021/05/01 11:35:22;;;;;;;12.25;10.95;;;15.50;74.70;;;;;;5022275;28;20099;-69
2021/05/01 11:37:49;;;;;;;10.82;9.10;;;15.50;71.60;;;;;;5023829;28;20044;-69
2021/05/01 11:40:17;;;;;;;22.65;9.40;;;15.30;68.30;;;;;;5022300;28;20060;-69
2021/05/01 11:42:45;;;;;;;13.38;7.68;;;15.10;71.30;;;;;;5022776;28;20045;-69
2021/05/01 11:45:17;;;;;;;9.20;7.35;;;15.10;77.20;;;;;;5018534;28;20128;-69
2021/05/01 11:47:52;;;;;;;8.25;6.63;;;15.20;76.90;;;;;;5024365;28;20163;-69
2021/05/01 11:50:19;;;;;;;7.80;7.03;;;15.40;67.30;;;;;;5021232;28;20041;-69
2021/05/01 11:53:00;;;;;;;6.95;5.90;;;15.30;69.10;;;;;;5024535;28;20376;-69
2021/05/01 11:55:32;;;;;;;6.53;5.35;;;15.00;66.10;;;;;;5023039;28;20045;-69
2021/05/01 11:58:03;;;;;;;12.20;7.00;;;14.60;69.80;;;;;;5022836;28;20042;-69
2021/05/01 12:00:41;;;;;;;8.73;6.88;;;14.30;71.40;;;;;;5018951;28;20048;-69
2021/05/01 12:03:19;;;;;;;8.50;7.20;;;14.00;73.10;;;;;;5021511;28;20045;-69
2021/05/01 12:05:48;;;;;;;12.73;8.13;;;13.80;75.70;;;;;;5022367;28;20037;-69
2021/05/01 12:08:21;;;;;;;12.50;9.02;;;13.80;80.30;;;;;;5022884;28;20038;-69
2021/05/01 12:10:53;;;;;;;10.90;7.88;;;13.70;82.90;;;;;;5022656;28;20065;-69
2021/05/01 12:13:27;;;;;;;12.00;9.85;;;13.80;83.70;;;;;;5023900;28;20064;-69
2021/05/01 12:15:59;;;;;;;10.82;8.93;;;13.80;83.20;;;;;;5023844;28;20042;-69
2021/05/01 12:18:51;;;;;;;9.32;8.45;;;13.80;83.30;;;;;;5020959;28;20029;-69
2021/05/01 12:21:17;;;;;;;11.00;8.80;;;13.90;83.80;;;;;;5021575;28;20037;-69
2021/05/01 12:23:48;;;;;;;7.95;7.15;;;13.90;83.60;;;;;;5024399;28;20148;-69
2021/05/01 12:26:32;;;;;;;7.00;4.55;;;13.80;81.80;;;;;;5024141;28;20090;-69
2021/05/01 12:29:26;;;;;;;6.32;4.30;;;13.60;81.70;;;;;;5016405;28;20037;-69
2021/05/01 12:32:04;;;;;;;8.05;4.60;;;13.60;82.40;;;;;;5021490;28;20042;-69
2021/05/01 12:34:52;;;;;;;7.88;4.80;;;13.50;82.80;;;;;;5023112;28;20057;-69
2021/05/01 12:37:19;;;;;;;5.35;4.85;;;13.40;84.80;;;;;;5021881;28;20046;-73
2021/05/01 12:39:46;;;;;;;7.07;4.68;;;13.30;82.80;;;;;;5019391;28;20121;-68
2021/05/01 12:42:19;;;;;;;5.68;5.07;;;13.20;85.50;;;;;;5022541;28;20056;-68
2021/05/01 12:44:47;;;;;;;6.10;5.50;;;13.20;86.70;;;;;;5020445;28;20044;-68